»·PEaware :: TPX810 KSBA-KLAS

TPX810 :: KSBA-KLAS

FLIGHT INFORMATION

Flight Status: Arrived
Operator: ATP Experience
More flights by this operator :: More flights under this callsign
Pilot: Dave P. (45)
Aircraft: BOEING 737-800
(B738)
More flights by this aircraft type
Origin: KSBA Santa Barbara Mun
United States
Destination: KLAS McCarran Intl
United States
More flights between these airports :: More routes between these airports
Route: +MISHN2 NNAVY MISEN KEPEC6
File this flight plan on PilotEdge
Remarks: PBN / A1B1C1D1S1S2 DOF / 180701 REG / N738PM OPR / TPX PER / D RMK / TCAS SIMBRIEF
Altitude:
(Current/Filed)
29,000ft
Speed:
(Current/Filed)
458kts
Departed: 01-Jul-18 07:57 AM
Arrived: 01-Jul-18 08:50 AM
Distance/Time
Traveled:
251nm/0:53
Distance/Time
To Go:
Arrived

Flight Plot

Page will automatically refresh every two minutes.

Flight plan parsing failed; only flown route is shown


Map Options




Map Legend


Flown Route
Filed Route
Departure Airport
Arrival Airport
Navaid (VOR, NDB)
Fix

Horizontal Profiles

Position Reports

Time Latitude Longitude Heading Altitude Ground
Speed
01-Jul-18 07:42 34.426259 -119.836936 178 18ft 0kts
01-Jul-18 07:43 34.426259 -119.836936 178 18ft 0kts
01-Jul-18 07:44 34.426259 -119.836936 178 18ft 0kts
01-Jul-18 07:45 34.426259 -119.836936 178 18ft 0kts
01-Jul-18 07:46 34.426259 -119.836936 178 18ft 0kts
01-Jul-18 07:47 34.426259 -119.836936 178 18ft 0kts
01-Jul-18 07:48 34.426259 -119.836936 178 18ft 0kts
01-Jul-18 07:49 34.426259 -119.836936 178 18ft 0kts
01-Jul-18 07:50 34.426553 -119.836945 178 18ft 0kts
01-Jul-18 07:51 34.426553 -119.836945 178 18ft 0kts
01-Jul-18 07:52 34.426552 -119.836945 178 18ft 0kts
01-Jul-18 07:53 34.426491 -119.836917 146 18ft 3kts
01-Jul-18 07:54 34.426933 -119.833149 88 18ft 14kts
01-Jul-18 07:55 34.427327 -119.832110 12 18ft 0kts
01-Jul-18 07:56 34.427945 -119.832345 287 18ft 6kts
01-Jul-18 07:57 34.427678 -119.845506 269 18ft 145kts
01-Jul-18 07:58 34.424783 -119.902466 267 2501ft 198kts
01-Jul-18 07:59 34.374385 -119.941063 181 4520ft 267kts
01-Jul-18 08:00 34.310122 -119.894664 132 7383ft 287kts
01-Jul-18 08:01 34.252512 -119.824183 132 10345ft 295kts
01-Jul-18 08:02 34.203301 -119.739418 100 12071ft 343kts
01-Jul-18 08:03 34.196780 -119.620080 93 14399ft 366kts
01-Jul-18 08:04 34.195907 -119.494081 86 16770ft 383kts
01-Jul-18 08:05 34.202321 -119.362780 86 18957ft 398kts
01-Jul-18 08:06 34.207646 -119.226559 86 20962ft 412kts
01-Jul-18 08:07 34.214919 -119.086238 80 22790ft 425kts
01-Jul-18 08:08 34.241994 -118.945671 75 24472ft 435kts
01-Jul-18 08:09 34.270607 -118.802088 76 26041ft 444kts
01-Jul-18 08:10 34.299714 -118.655217 75 27469ft 453kts
01-Jul-18 08:11 34.328899 -118.508125 75 29080ft 451kts
01-Jul-18 08:12 34.357850 -118.361061 75 29119ft 447kts
01-Jul-18 08:13 34.386318 -118.214455 76 29122ft 447kts
01-Jul-18 08:14 34.414431 -118.067778 76 29095ft 447kts
01-Jul-18 08:15 34.460491 -117.927084 64 29095ft 451kts
01-Jul-18 08:16 34.514366 -117.788821 64 29105ft 454kts
01-Jul-18 08:17 34.567883 -117.650227 64 29100ft 454kts
01-Jul-18 08:18 34.621810 -117.511311 64 29109ft 455kts
01-Jul-18 08:19 34.675409 -117.371932 64 29115ft 455kts
01-Jul-18 08:20 34.728771 -117.232376 64 29113ft 456kts
01-Jul-18 08:21 34.782047 -117.092395 64 29109ft 456kts
01-Jul-18 08:22 34.835261 -116.952578 64 29084ft 456kts
01-Jul-18 08:23 34.888120 -116.812041 64 29055ft 456kts
01-Jul-18 08:24 34.948481 -116.676460 54 29012ft 454kts
01-Jul-18 08:25 35.018888 -116.552551 54 26808ft 437kts
01-Jul-18 08:26 35.086522 -116.432135 54 24594ft 423kts
01-Jul-18 08:27 35.164074 -116.326245 45 22901ft 418kts
01-Jul-18 08:28 35.244458 -116.225526 45 21358ft 410kts
01-Jul-18 08:29 35.323055 -116.126486 45 19850ft 402kts
01-Jul-18 08:30 35.400343 -116.029332 45 18365ft 394kts
01-Jul-18 08:31 35.475788 -115.934246 45 16850ft 385kts
01-Jul-18 08:32 35.548403 -115.842195 46 15445ft 362kts
01-Jul-18 08:33 35.616449 -115.755436 46 14135ft 343kts
01-Jul-18 08:34 35.680752 -115.673320 46 13034ft 316kts
01-Jul-18 08:35 35.739945 -115.597775 43 13001ft 307kts
01-Jul-18 08:36 35.820977 -115.571467 2 13006ft 308kts
01-Jul-18 08:37 35.906783 -115.567130 3 13009ft 308kts
01-Jul-18 08:38 35.983745 -115.533857 57 12698ft 308kts
01-Jul-18 08:39 36.011448 -115.437662 68 11654ft 284kts
01-Jul-18 08:40 36.029237 -115.344886 92 10633ft 278kts
01-Jul-18 08:41 36.022141 -115.250288 94 9545ft 273kts
01-Jul-18 08:42 36.015592 -115.158521 94 8624ft 256kts
01-Jul-18 08:43 36.010118 -115.077565 93 8059ft 214kts
01-Jul-18 08:44 36.006018 -115.007094 94 6680ft 204kts
01-Jul-18 08:45 36.011028 -114.942238 33 5408ft 188kts
01-Jul-18 08:46 36.057933 -114.949333 314 4255ft 185kts
01-Jul-18 08:47 36.073815 -115.008013 269 4046ft 192kts
01-Jul-18 08:48 36.073704 -115.070180 269 3081ft 168kts
01-Jul-18 08:50 36.073593 -115.125576 270 2236ft 157kts
01-Jul-18 08:51 36.074480 -115.145146 295 2189ft 5kts
01-Jul-18 08:52 36.075533 -115.146444 359 2189ft 3kts
01-Jul-18 08:53 36.077098 -115.146521 355 2189ft 0kts
01-Jul-18 08:54 36.078414 -115.145928 94 2189ft 13kts
01-Jul-18 08:55 36.078236 -115.140528 89 2189ft 12kts
01-Jul-18 08:56 36.080089 -115.137947 48 2189ft 12kts
01-Jul-18 08:57 36.081099 -115.137997 322 2189ft 0kts
01-Jul-18 08:58 36.081099 -115.137997 322 2189ft 0kts
01-Jul-18 08:59 36.081099 -115.137997 322 2189ft 0kts
01-Jul-18 09:00 36.081099 -115.137997 322 2189ft 0kts
01-Jul-18 09:01 36.081099 -115.137997 322 2189ft 0kts
01-Jul-18 09:02 36.081099 -115.137997 322 2189ft 0kts
01-Jul-18 09:03 36.081099 -115.137997 322 2189ft 0kts

Navigation Log

Ident Type
Flight plan parsing failed, navigation log unavailable